createdAt,value
2018-06-27T00:00:47.453Z,23.20
2018-06-27T00:03:15.228Z,23.20
2018-06-27T00:05:42.969Z,23.30
2018-06-27T00:08:10.891Z,23.30
2018-06-27T00:10:38.596Z,23.10
2018-06-27T00:13:06.424Z,23.10
2018-06-27T00:15:34.171Z,23.00
2018-06-27T00:18:01.910Z,23.00
2018-06-27T00:20:29.707Z,23.10
2018-06-27T00:22:57.496Z,22.80
2018-06-27T00:25:26.107Z,23.00
2018-06-27T00:27:53.822Z,23.10
2018-06-27T00:30:21.529Z,23.00
2018-06-27T00:35:16.971Z,22.80
2018-06-27T00:37:44.734Z,22.80
2018-06-27T00:40:12.479Z,22.70
2018-06-27T00:42:40.205Z,22.50
2018-06-27T00:45:08.410Z,22.50
2018-06-27T00:47:36.141Z,22.20
2018-06-27T00:50:04.033Z,22.20
2018-06-27T00:52:31.722Z,22.10
2018-06-27T00:54:59.474Z,22.00
2018-06-27T00:57:27.223Z,22.10
2018-06-27T00:59:54.994Z,22.10
2018-06-27T01:02:22.710Z,22.30
2018-06-27T01:04:50.399Z,22.10
2018-06-27T01:07:18.081Z,21.90
2018-06-27T01:09:45.754Z,22.00
2018-06-27T01:12:13.491Z,22.00
2018-06-27T01:14:41.223Z,22.10
2018-06-27T01:17:08.933Z,21.80
2018-06-27T01:19:36.651Z,22.00
2018-06-27T01:22:04.414Z,22.00
2018-06-27T01:24:32.146Z,21.90
2018-06-27T01:26:59.855Z,21.90
2018-06-27T01:29:27.598Z,22.00
2018-06-27T01:31:55.360Z,21.90
2018-06-27T01:34:23.073Z,22.00
2018-06-27T01:36:50.797Z,22.00
2018-06-27T01:39:18.481Z,22.10
2018-06-27T01:41:46.176Z,22.00
2018-06-27T01:44:13.909Z,22.00
2018-06-27T01:46:41.649Z,21.80
2018-06-27T01:51:37.135Z,21.80
2018-06-27T01:54:04.854Z,21.60
2018-06-27T01:56:32.567Z,21.60
2018-06-27T01:59:00.266Z,21.60
2018-06-27T02:01:28.023Z,21.70
2018-06-27T02:03:55.785Z,21.70
2018-06-27T02:06:23.495Z,21.60
2018-06-27T02:08:51.176Z,21.30
2018-06-27T02:11:18.887Z,21.10
2018-06-27T02:13:46.590Z,21.20
2018-06-27T02:16:14.287Z,21.30
2018-06-27T02:18:41.988Z,21.10
2018-06-27T02:21:09.694Z,21.20
2018-06-27T02:23:37.415Z,21.00
2018-06-27T02:26:06.454Z,20.90
2018-06-27T02:28:34.128Z,20.70
2018-06-27T02:33:29.939Z,20.80
2018-06-27T02:35:58.519Z,20.70
2018-06-27T02:38:26.748Z,20.70
2018-06-27T02:40:54.509Z,20.90
2018-06-27T02:43:22.539Z,20.80
2018-06-27T02:45:50.275Z,20.90
2018-06-27T02:48:18.027Z,20.90
2018-06-27T02:50:45.771Z,20.80
2018-06-27T02:53:13.448Z,20.70
2018-06-27T02:55:41.254Z,20.50
2018-06-27T02:58:09.005Z,20.40
2018-06-27T03:00:36.751Z,20.50
2018-06-27T03:03:04.829Z,20.40
2018-06-27T03:05:32.558Z,20.30
2018-06-27T03:08:00.274Z,20.10
2018-06-27T03:10:28.111Z,20.10
2018-06-27T03:12:55.839Z,20.20
2018-06-27T03:15:23.579Z,20.20
2018-06-27T03:17:51.261Z,20.20
2018-06-27T03:20:19.030Z,20.40
2018-06-27T03:22:46.777Z,20.20
2018-06-27T03:25:14.506Z,20.10
2018-06-27T03:27:42.555Z,20.10
2018-06-27T03:30:10.276Z,20.20
2018-06-27T03:32:38.122Z,20.20
2018-06-27T03:35:06.095Z,20.30
2018-06-27T03:37:33.789Z,20.30
2018-06-27T03:40:01.650Z,20.30
2018-06-27T03:42:29.417Z,20.20
2018-06-27T03:47:24.955Z,20.40
2018-06-27T03:49:52.707Z,20.30
2018-06-27T03:52:20.402Z,20.40
2018-06-27T03:54:48.138Z,20.30
2018-06-27T03:57:15.850Z,20.20
2018-06-27T03:59:43.622Z,19.90
2018-06-27T04:04:39.064Z,20.20
2018-06-27T04:07:06.791Z,20.20
2018-06-27T04:09:34.519Z,20.10
2018-06-27T04:12:02.185Z,20.30
2018-06-27T04:14:29.890Z,20.20
2018-06-27T04:16:57.659Z,20.10
2018-06-27T04:19:25.396Z,20.00
2018-06-27T04:21:53.139Z,20.10
2018-06-27T04:24:20.863Z,20.20
2018-06-27T04:26:48.574Z,20.30
2018-06-27T04:29:16.289Z,20.20
2018-06-27T04:31:44.007Z,19.90
2018-06-27T04:34:11.726Z,20.10
2018-06-27T04:36:39.819Z,20.10
2018-06-27T04:39:09.204Z,20.30
2018-06-27T04:41:37.189Z,20.30
2018-06-27T04:44:04.919Z,20.70
2018-06-27T04:46:32.950Z,20.70
2018-06-27T04:49:00.774Z,20.60
2018-06-27T04:51:28.694Z,20.80
2018-06-27T04:53:56.498Z,20.60
2018-06-27T04:56:24.617Z,20.50
2018-06-27T04:58:53.491Z,20.70
2018-06-27T05:01:21.468Z,20.80
2018-06-27T05:03:49.152Z,20.50
2018-06-27T05:06:16.869Z,20.60
2018-06-27T05:08:44.795Z,20.60
2018-06-27T05:11:12.772Z,20.70
2018-06-27T05:13:40.530Z,20.20
2018-06-27T05:16:08.283Z,19.80
2018-06-27T05:18:35.991Z,19.50
2018-06-27T05:21:03.754Z,19.60
2018-06-27T05:23:31.687Z,19.60
2018-06-27T05:25:59.395Z,20.00
2018-06-27T05:28:27.109Z,20.10
2018-06-27T05:30:55.106Z,20.40
2018-06-27T05:33:22.849Z,20.60
2018-06-27T05:35:50.659Z,20.70
2018-06-27T05:38:18.411Z,20.40
2018-06-27T05:40:46.083Z,20.40
2018-06-27T05:43:14.201Z,20.80
2018-06-27T05:45:41.974Z,20.70
2018-06-27T05:48:09.729Z,20.90
2018-06-27T05:50:37.550Z,20.90
2018-06-27T05:53:05.487Z,20.60
2018-06-27T05:55:33.217Z,21.00
2018-06-27T05:58:01.000Z,21.10
2018-06-27T06:00:28.735Z,21.00
2018-06-27T06:02:56.431Z,20.80
2018-06-27T06:05:24.156Z,20.70
2018-06-27T06:07:51.914Z,21.10
2018-06-27T06:10:19.632Z,21.40
2018-06-27T06:12:47.358Z,21.50
2018-06-27T06:15:15.183Z,21.50
2018-06-27T06:17:42.905Z,21.70
2018-06-27T06:20:10.638Z,21.70
2018-06-27T06:22:38.388Z,21.90
2018-06-27T06:25:06.105Z,22.20
2018-06-27T06:27:33.808Z,22.10
2018-06-27T06:30:01.531Z,22.40
2018-06-27T06:32:29.314Z,22.60
2018-06-27T06:34:56.966Z,22.40
2018-06-27T06:37:24.726Z,22.50
2018-06-27T06:39:52.420Z,22.70
2018-06-27T06:42:20.108Z,22.60
2018-06-27T06:44:47.815Z,22.50
2018-06-27T06:47:15.526Z,22.70
2018-06-27T06:49:43.221Z,22.90
2018-06-27T06:52:11.015Z,22.90
2018-06-27T06:54:38.668Z,22.90
2018-06-27T06:57:06.399Z,23.00
2018-06-27T06:59:34.091Z,23.30
2018-06-27T07:02:01.836Z,23.10
2018-06-27T07:04:29.569Z,23.10
2018-06-27T07:06:57.294Z,23.40
2018-06-27T07:09:25.448Z,23.40
2018-06-27T07:11:53.169Z,23.70
2018-06-27T07:14:20.925Z,23.80
2018-06-27T07:16:48.637Z,24.10
2018-06-27T07:21:44.116Z,24.10
2018-06-27T07:24:11.901Z,24.10
2018-06-27T07:26:39.635Z,24.10
2018-06-27T07:29:07.533Z,24.20
2018-06-27T07:31:35.250Z,24.40
2018-06-27T07:34:03.026Z,23.90
2018-06-27T07:36:30.803Z,23.80
2018-06-27T07:38:58.512Z,23.50
2018-06-27T07:41:26.618Z,23.70
2018-06-27T07:43:54.404Z,23.60
2018-06-27T07:46:22.177Z,24.00
2018-06-27T07:48:50.098Z,24.20
2018-06-27T07:51:17.839Z,24.40
2018-06-27T07:53:45.565Z,24.80
2018-06-27T07:56:13.364Z,25.10
2018-06-27T07:58:41.110Z,25.50
2018-06-27T08:03:37.556Z,25.60
2018-06-27T08:06:05.373Z,25.70
2018-06-27T08:08:33.170Z,26.40
2018-06-27T08:11:00.942Z,26.60
2018-06-27T08:13:28.825Z,26.50
2018-06-27T08:15:57.585Z,26.70
2018-06-27T08:18:25.375Z,26.70
2018-06-27T08:20:53.108Z,26.90
2018-06-27T08:23:20.896Z,27.10
2018-06-27T08:25:51.415Z,28.90
2018-06-27T08:30:55.365Z,27.60
2018-06-27T08:33:23.079Z,27.70
2018-06-27T08:35:50.789Z,28.00
2018-06-27T08:38:18.543Z,28.60
2018-06-27T08:40:46.323Z,28.30
2018-06-27T08:43:14.101Z,29.50
2018-06-27T08:45:41.819Z,28.70
2018-06-27T08:50:37.826Z,28.80
2018-06-27T08:53:05.899Z,28.80
2018-06-27T08:55:33.882Z,29.20
2018-06-27T08:58:01.638Z,29.60
2018-06-27T09:00:29.354Z,29.80
2018-06-27T09:02:57.113Z,30.20
2018-06-27T09:05:25.022Z,30.70
2018-06-27T09:07:52.728Z,30.80
2018-06-27T09:10:20.479Z,30.60
2018-06-27T09:12:48.254Z,31.00
2018-06-27T09:15:16.018Z,31.20
2018-06-27T09:17:43.744Z,31.40
2018-06-27T09:20:11.450Z,31.70
2018-06-27T09:22:39.210Z,31.80
2018-06-27T09:25:06.986Z,31.90
2018-06-27T09:27:34.723Z,31.80
2018-06-27T09:30:02.475Z,31.70
2018-06-27T09:32:30.247Z,31.90
2018-06-27T09:34:57.924Z,31.70
2018-06-27T09:37:25.675Z,31.60
2018-06-27T09:39:53.363Z,31.90
2018-06-27T09:42:21.064Z,31.90
2018-06-27T09:44:48.821Z,32.50
2018-06-27T09:47:16.524Z,32.40
2018-06-27T09:49:44.961Z,32.60
2018-06-27T09:52:12.659Z,32.80
2018-06-27T09:54:41.184Z,32.70
2018-06-27T09:57:11.123Z,33.00
2018-06-27T09:59:38.945Z,33.10
2018-06-27T10:02:06.763Z,33.20
2018-06-27T10:04:34.459Z,33.70
2018-06-27T10:07:02.467Z,33.70
2018-06-27T10:09:30.182Z,33.20
2018-06-27T10:11:57.919Z,33.50
2018-06-27T10:14:25.619Z,33.50
2018-06-27T10:16:53.458Z,33.80
2018-06-27T10:19:21.098Z,34.50
2018-06-27T10:21:48.807Z,34.40
2018-06-27T10:24:16.521Z,34.70
2018-06-27T10:26:44.289Z,34.70
2018-06-27T10:29:11.982Z,36.30
2018-06-27T10:34:08.869Z,35.30
2018-06-27T10:36:36.802Z,35.10
2018-06-27T10:39:08.049Z,35.50
2018-06-27T10:41:36.166Z,35.80
2018-06-27T10:44:04.058Z,35.90
2018-06-27T10:46:32.294Z,35.70
2018-06-27T10:49:00.418Z,34.90
2018-06-27T10:51:28.567Z,34.20
2018-06-27T10:53:57.342Z,34.90
2018-06-27T10:56:25.444Z,35.00
2018-06-27T10:58:53.422Z,35.20
2018-06-27T11:01:21.499Z,35.70
2018-06-27T11:03:50.256Z,35.80
2018-06-27T11:06:18.693Z,35.90
2018-06-27T11:08:46.867Z,36.40
2018-06-27T11:11:14.802Z,36.90
2018-06-27T11:13:42.809Z,37.20
2018-06-27T11:16:10.761Z,37.60
2018-06-27T11:18:39.259Z,37.60
2018-06-27T11:21:07.793Z,37.40
2018-06-27T11:23:35.689Z,37.90
2018-06-27T11:28:31.933Z,38.20
2018-06-27T11:31:00.510Z,38.30
2018-06-27T11:33:28.889Z,38.20
2018-06-27T11:35:57.408Z,38.20
2018-06-27T11:38:25.409Z,38.60
2018-06-27T11:40:53.238Z,38.80
2018-06-27T11:43:21.270Z,39.00
2018-06-27T11:45:49.619Z,39.40
2018-06-27T11:50:45.252Z,38.90
2018-06-27T11:55:40.951Z,39.00
2018-06-27T11:58:09.299Z,39.10
2018-06-27T12:00:37.626Z,39.50
2018-06-27T12:03:05.422Z,39.40
2018-06-27T12:05:37.686Z,39.20
2018-06-27T12:08:05.491Z,39.60
2018-06-27T12:10:33.363Z,39.90
2018-06-27T12:13:01.142Z,40.10
2018-06-27T12:15:30.054Z,40.30
2018-06-27T12:17:58.402Z,39.80
2018-06-27T12:20:26.174Z,40.00
2018-06-27T12:22:53.958Z,40.80
2018-06-27T12:25:22.016Z,40.20
2018-06-27T12:27:49.838Z,40.40
2018-06-27T12:30:20.463Z,41.00
2018-06-27T12:32:48.660Z,41.40
2018-06-27T12:35:17.569Z,41.50
2018-06-27T12:37:45.657Z,42.00
2018-06-27T12:40:13.473Z,41.20
2018-06-27T12:42:41.211Z,40.80
2018-06-27T12:45:09.711Z,41.20
2018-06-27T12:47:37.546Z,41.60
2018-06-27T12:50:07.817Z,41.90
2018-06-27T12:52:35.984Z,42.20
2018-06-27T12:55:06.081Z,42.80
2018-06-27T12:57:34.775Z,43.50
2018-06-27T13:00:03.237Z,43.70
2018-06-27T13:02:31.486Z,43.40
2018-06-27T13:04:59.892Z,43.00
2018-06-27T13:07:27.636Z,42.50
2018-06-27T13:09:55.614Z,42.20
2018-06-27T13:12:23.385Z,42.50
2018-06-27T13:14:51.791Z,43.10
2018-06-27T13:17:20.175Z,43.20
2018-06-27T13:19:48.577Z,43.70
2018-06-27T13:22:17.060Z,43.90
2018-06-27T13:24:44.918Z,43.90
2018-06-27T13:27:12.987Z,43.50
2018-06-27T13:32:08.934Z,43.70
2018-06-27T13:37:05.052Z,43.10
2018-06-27T13:39:33.671Z,43.20
2018-06-27T13:42:01.536Z,43.00
2018-06-27T13:44:29.993Z,42.90
2018-06-27T13:46:58.683Z,42.30
2018-06-27T13:49:28.187Z,43.30
2018-06-27T13:51:56.728Z,43.30
2018-06-27T13:56:53.506Z,42.60
2018-06-27T13:59:22.264Z,42.90
2018-06-27T14:01:50.179Z,42.60
2018-06-27T14:04:18.128Z,42.30
2018-06-27T14:06:46.354Z,42.10
2018-06-27T14:09:14.393Z,42.60
2018-06-27T14:14:10.634Z,42.30
2018-06-27T14:16:39.111Z,42.50
2018-06-27T14:19:07.523Z,42.50
2018-06-27T14:24:04.433Z,42.70
2018-06-27T14:26:35.106Z,42.60
2018-06-27T14:29:03.750Z,41.50
2018-06-27T14:31:32.281Z,41.10
2018-06-27T14:34:00.098Z,40.90
2018-06-27T14:36:28.279Z,41.00
2018-06-27T14:38:56.095Z,41.20
2018-06-27T14:41:24.756Z,41.30
2018-06-27T14:43:52.665Z,41.20
2018-06-27T14:46:20.622Z,41.40
2018-06-27T14:48:48.505Z,41.80
2018-06-27T14:51:16.209Z,41.80
2018-06-27T14:53:46.865Z,41.50
2018-06-27T14:56:14.578Z,41.60
2018-06-27T14:58:42.383Z,41.90
2018-06-27T15:01:10.191Z,41.80
2018-06-27T15:03:37.976Z,40.90
2018-06-27T15:06:07.574Z,41.10
2018-06-27T15:08:35.336Z,41.10
2018-06-27T15:11:03.127Z,41.20
2018-06-27T15:13:30.960Z,41.40
2018-06-27T15:15:58.989Z,41.20
2018-06-27T15:18:27.450Z,41.00
2018-06-27T15:20:55.232Z,41.00
2018-06-27T15:23:24.569Z,41.10
2018-06-27T15:25:53.538Z,40.80
2018-06-27T15:28:22.536Z,41.00
2018-06-27T15:30:51.295Z,40.60
2018-06-27T15:33:19.800Z,40.80
2018-06-27T15:35:47.720Z,41.10
2018-06-27T15:38:15.495Z,41.20
2018-06-27T15:40:43.535Z,41.30
2018-06-27T15:43:12.603Z,40.70
2018-06-27T15:45:40.395Z,39.90
2018-06-27T15:48:08.257Z,40.50
2018-06-27T15:50:36.051Z,40.80
2018-06-27T15:55:31.815Z,40.90
2018-06-27T15:57:59.588Z,41.00
2018-06-27T16:00:27.321Z,41.00
2018-06-27T16:02:55.085Z,40.80
2018-06-27T16:05:22.951Z,40.80
2018-06-27T16:07:52.134Z,40.40
2018-06-27T16:10:20.608Z,40.10
2018-06-27T16:12:48.500Z,39.60
2018-06-27T16:15:16.934Z,39.30
2018-06-27T16:17:46.811Z,39.50
2018-06-27T16:20:14.841Z,39.70
2018-06-27T16:22:42.658Z,39.80
2018-06-27T16:25:10.966Z,40.00
2018-06-27T16:27:39.263Z,39.60
2018-06-27T16:30:07.516Z,39.60
2018-06-27T16:32:36.024Z,40.00
2018-06-27T16:35:04.284Z,40.10
2018-06-27T16:37:32.202Z,39.90
2018-06-27T16:39:59.963Z,39.60
2018-06-27T16:42:27.803Z,39.90
2018-06-27T16:44:55.648Z,40.00
2018-06-27T16:47:23.439Z,40.20
2018-06-27T16:52:18.989Z,39.10
2018-06-27T16:54:47.491Z,39.10
2018-06-27T16:57:15.348Z,39.30
2018-06-27T16:59:44.091Z,38.80
2018-06-27T17:02:11.912Z,38.50
2018-06-27T17:04:39.763Z,38.40
2018-06-27T17:07:07.711Z,38.30
2018-06-27T17:09:35.571Z,38.20
2018-06-27T17:12:03.507Z,37.50
2018-06-27T17:14:31.770Z,37.60
2018-06-27T17:17:00.189Z,37.70
2018-06-27T17:19:28.156Z,37.60
2018-06-27T17:21:57.092Z,37.40
2018-06-27T17:24:25.623Z,37.30
2018-06-27T17:26:53.714Z,37.40
2018-06-27T17:29:21.532Z,37.30
2018-06-27T17:31:49.372Z,37.20
2018-06-27T17:34:17.254Z,37.20
2018-06-27T17:36:45.091Z,37.10
2018-06-27T17:39:13.909Z,37.30
2018-06-27T17:41:42.864Z,37.60
2018-06-27T17:44:10.751Z,37.90
2018-06-27T17:46:38.708Z,37.70
2018-06-27T17:49:06.693Z,37.60
2018-06-27T17:51:34.695Z,37.40
2018-06-27T17:54:02.959Z,37.40
2018-06-27T17:56:31.555Z,37.00
2018-06-27T17:58:59.384Z,36.80
2018-06-27T18:01:27.313Z,37.00
2018-06-27T18:03:55.553Z,36.80
2018-06-27T18:06:23.379Z,36.70
2018-06-27T18:08:51.350Z,36.70
2018-06-27T18:11:19.450Z,36.80
2018-06-27T18:13:47.263Z,36.70
2018-06-27T18:16:15.198Z,36.20
2018-06-27T18:18:42.998Z,36.60
2018-06-27T18:21:11.406Z,36.90
2018-06-27T18:23:39.814Z,37.50
2018-06-27T18:26:07.800Z,36.60
2018-06-27T18:28:35.688Z,36.90
2018-06-27T18:31:04.975Z,37.20
2018-06-27T18:33:32.814Z,37.30
2018-06-27T18:36:01.958Z,37.30
2018-06-27T18:38:29.800Z,37.30
2018-06-27T18:40:58.136Z,37.40
2018-06-27T18:43:26.098Z,37.30
2018-06-27T18:45:54.764Z,37.30
2018-06-27T18:48:22.693Z,37.20
2018-06-27T18:50:50.610Z,37.20
2018-06-27T18:53:19.902Z,37.20
2018-06-27T18:55:47.880Z,37.00
2018-06-27T18:58:16.755Z,37.90
2018-06-27T19:00:46.423Z,36.90
2018-06-27T19:03:14.730Z,37.40
2018-06-27T19:05:43.215Z,36.50
2018-06-27T19:08:11.654Z,36.40
2018-06-27T19:10:39.535Z,36.30
2018-06-27T19:13:07.525Z,36.10
2018-06-27T19:15:36.017Z,36.10
2018-06-27T19:18:04.972Z,35.80
2018-06-27T19:20:32.728Z,35.90
2018-06-27T19:23:00.551Z,35.90
2018-06-27T19:25:28.325Z,35.50
2018-06-27T19:27:56.978Z,35.30
2018-06-27T19:30:25.866Z,35.00
2018-06-27T19:32:54.397Z,35.10
2018-06-27T19:35:22.666Z,34.50
2018-06-27T19:40:19.401Z,34.40
2018-06-27T19:42:47.347Z,34.20
2018-06-27T19:45:15.203Z,34.10
2018-06-27T19:47:43.072Z,33.90
2018-06-27T19:50:10.875Z,33.70
2018-06-27T19:52:38.674Z,33.60
2018-06-27T19:55:06.782Z,33.40
2018-06-27T19:57:34.540Z,33.20
2018-06-27T20:00:02.262Z,32.90
2018-06-27T20:02:30.133Z,32.60
2018-06-27T20:04:58.774Z,32.60
2018-06-27T20:07:26.853Z,32.40
2018-06-27T20:09:55.391Z,32.30
2018-06-27T20:12:23.222Z,32.10
2018-06-27T20:14:51.788Z,31.90
2018-06-27T20:17:19.830Z,31.60
2018-06-27T20:19:49.259Z,31.50
2018-06-27T20:22:17.245Z,31.60
2018-06-27T20:24:48.751Z,31.40
2018-06-27T20:29:45.728Z,31.10
2018-06-27T20:32:13.653Z,31.10
2018-06-27T20:34:41.607Z,30.90
2018-06-27T20:37:09.453Z,30.90
2018-06-27T20:39:37.158Z,30.90
2018-06-27T20:42:05.332Z,30.70
2018-06-27T20:44:33.264Z,30.50
2018-06-27T20:47:01.029Z,30.70
2018-06-27T20:49:28.790Z,30.80
2018-06-27T20:54:24.637Z,30.70
2018-06-27T20:56:52.393Z,30.40
2018-06-27T20:59:20.551Z,30.30
2018-06-27T21:01:48.428Z,30.20
2018-06-27T21:04:16.154Z,30.30
2018-06-27T21:06:43.897Z,30.20
2018-06-27T21:09:11.832Z,30.00
2018-06-27T21:11:39.567Z,29.90
2018-06-27T21:14:07.427Z,29.80
2018-06-27T21:16:35.169Z,29.70
2018-06-27T21:19:02.882Z,29.60
2018-06-27T21:21:31.601Z,29.60
2018-06-27T21:23:59.303Z,29.50
2018-06-27T21:26:27.093Z,29.30
2018-06-27T21:28:54.876Z,29.20
2018-06-27T21:31:23.014Z,29.30
2018-06-27T21:36:18.989Z,28.90
2018-06-27T21:38:47.082Z,28.90
2018-06-27T21:41:14.826Z,29.00
2018-06-27T21:43:42.594Z,28.80
2018-06-27T21:46:10.419Z,28.80
2018-06-27T21:48:38.467Z,28.80
2018-06-27T21:51:06.277Z,28.80
2018-06-27T21:53:33.980Z,28.60
2018-06-27T21:58:29.492Z,28.50
2018-06-27T22:00:57.319Z,28.50
2018-06-27T22:03:25.070Z,28.60
2018-06-27T22:05:52.827Z,28.70
2018-06-27T22:08:20.575Z,28.60
2018-06-27T22:13:17.190Z,28.50
2018-06-27T22:15:44.933Z,28.40
2018-06-27T22:18:12.782Z,28.40
2018-06-27T22:20:40.515Z,28.20
2018-06-27T22:23:08.283Z,28.00
2018-06-27T22:25:35.999Z,27.90
2018-06-27T22:28:03.728Z,28.10
2018-06-27T22:30:31.520Z,28.00
2018-06-27T22:32:59.230Z,28.20
2018-06-27T22:35:27.016Z,28.10
2018-06-27T22:37:54.746Z,27.90
2018-06-27T22:40:22.462Z,27.90
2018-06-27T22:42:50.200Z,27.90
2018-06-27T22:45:17.962Z,27.70
2018-06-27T22:47:45.763Z,27.90
2018-06-27T22:50:13.672Z,27.80
2018-06-27T22:52:41.465Z,27.70
2018-06-27T22:55:09.308Z,27.60
2018-06-27T23:00:05.269Z,27.60
2018-06-27T23:02:32.936Z,27.40
2018-06-27T23:05:00.726Z,27.20
2018-06-27T23:07:29.006Z,27.00
2018-06-27T23:09:56.775Z,26.60
2018-06-27T23:12:24.483Z,26.70
2018-06-27T23:14:52.223Z,27.00
2018-06-27T23:17:20.030Z,26.60
2018-06-27T23:19:47.765Z,26.50
2018-06-27T23:22:32.986Z,26.60
2018-06-27T23:25:00.717Z,26.70
2018-06-27T23:27:28.581Z,26.40
2018-06-27T23:29:56.250Z,26.40
2018-06-27T23:32:25.096Z,26.30
2018-06-27T23:34:52.830Z,26.40
2018-06-27T23:37:20.579Z,26.40
2018-06-27T23:39:48.300Z,26.50
2018-06-27T23:42:15.984Z,26.50
2018-06-27T23:44:43.658Z,26.10
2018-06-27T23:47:11.534Z,26.10
2018-06-27T23:49:39.279Z,26.20
2018-06-27T23:52:06.990Z,26.10
2018-06-27T23:54:34.700Z,26.00
2018-06-27T23:57:02.428Z,26.00
2018-06-27T23:59:30.134Z,26.00
